Kaszuby — C6XD6 — position and weather

sailwx.info

Track history (hours):
 
Tides and Currents Weather Stations Pressure Air Temp Water Temp Dewpoint Dewpoint Depression Visibility Wind Speed Wind Dir Waves Ship Positions

Kaszuby

Last reported at 2017-Jan-05 23:28 UTC. Time now 2017-Jan-20 07:52 UTC.
Position N 33°09' W 014°04'.
Warning: this ship's position is 14 days out of date.

Length 190 m; draft 10.2 m.

Type: Cargo ship. MMSI: 311005600.

Date/timePositionNaut miles runAvg speedWind from/ knotsBaromVisibWave heightAir tempDewpointWater temp
2017-Jan-05 23:28N 33°09' W 014°04'  
2017-Jan-02 05:30N 49°46' W 003°33'1313.8
2017-Jan-02 04:33N 49°53' W 003°15'1514.9
2017-Jan-02 03:33N 50°00' W 002°55'9212.6
2017-Jan-01 20:15N 50°24' W 000°36'913.2
2017-Jan-01 19:32N 50°27' W 000°22'1313.7
2017-Jan-01 18:33N 50°31' W 000°02'1414.0
2017-Jan-01 17:33N 50°35' E 000°20'3012.9
2017-Jan-01 15:13N 50°50' E 001°01'711.1
2017-Jan-01 14:33N 50°55' E 001°10'1010.0
2017-Jan-01 13:33N 51°01' E 001°21'10 9.7
2017-Jan-01 12:33N 51°08' E 001°33'1111.0
2017-Jan-01 11:33N 51°15' E 001°46'1413.8
2017-Jan-01 10:33N 51°28' E 001°56'1414.3
2017-Jan-01 09:33N 51°38' E 002°12'1413.9
2017-Jan-01 08:34N 51°48' E 002°27'45311.3
2016-Dec-30 16:33N 57°49' E 010°23'1010.5
2016-Dec-30 15:33N 57°49' E 010°43'1212.0
2016-Dec-30 14:34N 57°41' E 010°60'1312.9
2016-Dec-30 13:33N 57°32' E 011°18'1312.7
2016-Dec-30 12:34N 57°21' E 011°31'1313.3
2016-Dec-30 11:33N 57°09' E 011°39'1513.2
2016-Dec-30 10:26N 56°55' E 011°48'1411.9
2016-Dec-30 09:16N 56°41' E 011°49'2413.4
2016-Dec-30 07:29N 56°20' E 011°27'1813.2
2016-Dec-30 06:07N 56°05' E 011°08'713.1
2016-Dec-30 05:33N 55°59' E 011°02'1513.0
2016-Dec-30 04:26N 55°46' E 010°48'1112.8
2016-Dec-30 03:32N 55°35' E 010°50'1312.9
2016-Dec-30 02:33N 55°24' E 011°00'1212.3
2016-Dec-30 01:34N 55°12' E 011°06'1111.4
2016-Dec-30 00:33N 55°01' E 010°59'1212.4
2016-Dec-29 23:34N 54°50' E 010°50'1111.1
2016-Dec-29 22:34N 54°39' E 010°51'1212.4
2016-Dec-29 21:34N 54°36' E 011°12'1313.0
2016-Dec-29 20:33N 54°30' E 011°32'1312.9
2016-Dec-29 19:34N 54°26' E 011°53'1111.2
2016-Dec-29 18:34N 54°29' E 012°12'1211.7
2016-Dec-29 17:34N 54°39' E 012°23'1212.2
2016-Dec-29 16:33N 54°46' E 012°40'2612.5
2016-Dec-29 14:31N 54°55' E 013°21'1212.3
2016-Dec-29 13:34N 54°59' E 013°40'1212.4
2016-Dec-29 12:33N 55°03' E 014°01'1312.6
2016-Dec-29 11:33N 55°13' E 014°15'1312.6
2016-Dec-29 10:33N 55°22' E 014°30'1212.2
2016-Dec-29 09:33N 55°30' E 014°47'1312.4
2016-Dec-29 08:30N 55°36' E 015°07'1212.3
2016-Dec-29 07:31N 55°43' E 015°25'33012.7
2016-Dec-28 05:34N 59°34' E 022°46'1312.7
2016-Dec-28 04:33N 59°38' E 023°10'1312.6
2016-Dec-28 03:34N 59°41' E 023°34'1212.2
2016-Dec-28 02:33N 59°44' E 023°57'1412.3
2016-Dec-28 01:27N 59°48' E 024°23'1112.2
2016-Dec-28 00:32N 59°50' E 024°45'1212.2
2016-Dec-27 23:34N 59°52' E 025°08'1212.1
2016-Dec-27 22:34N 59°54' E 025°32'1712.5
2016-Dec-27 21:12N 59°57' E 026°05'813.0
2016-Dec-27 20:33N 59°60' E 026°21'1312.6
2016-Dec-27 19:33N 60°01' E 026°46'1412.3
2016-Dec-27 18:27N 60°03' E 027°13'1213.2
2016-Dec-27 17:33N 60°09' E 027°34'1212.2
2016-Dec-27 16:33N 60°11' E 027°58'1312.6
2016-Dec-27 15:33N 60°06' E 028°21'1312.6
2016-Dec-27 14:33N 60°03' E 028°46'2512.0
2016-Dec-27 12:29N 60°01' E 029°35'910.0
2016-Dec-27 11:33N 59°57' E 029°52'9 9.1
2016-Dec-27 10:33N 59°53' E 030°09'1 1.3
2016-Dec-27 09:31N 59°53' E 030°11'0 0.0
2016-Dec-27 08:31N 59°53' E 030°11'0 0.0
2016-Dec-27 07:31N 59°53' E 030°11'0 0.0
2016-Dec-27 06:28N 59°53' E 030°11'0 0.0
2016-Dec-27 05:31N 59°53' E 030°11'0 0.0
2016-Dec-27 04:31N 59°53' E 030°11'0 0.0
2016-Dec-27 03:31N 59°53' E 030°11'0 0.0
2016-Dec-27 02:28N 59°53' E 030°11'0 0.0
2016-Dec-27 01:31N 59°53' E 030°11'0 0.0
2016-Dec-27 00:31N 59°53' E 030°11'0 0.0
2016-Dec-26 23:31N 59°53' E 030°11'  
Track history (hours):
 
Tides and Currents Weather Stations Pressure Air Temp Water Temp Dewpoint Dewpoint Depression Visibility Wind Speed Wind Dir Waves Ship Positions

Kaszuby

Last reported at 2017-Jan-05 23:28 UTC. Time now 2017-Jan-20 07:52 UTC.
Position N 33°09' W 014°04'.
Warning: this ship's position is 14 days out of date.

Length 190 m; draft 10.2 m.

Type: Cargo ship. MMSI: 311005600.

Date/timePositionNaut miles runAvg speedWind from/ knotsBaromVisibWave heightAir tempDewpointWater temp
2017-Jan-05 23:28N 33°09' W 014°04'  
2017-Jan-02 05:30N 49°46' W 003°33'1313.8
2017-Jan-02 04:33N 49°53' W 003°15'1514.9
2017-Jan-02 03:33N 50°00' W 002°55'9212.6
2017-Jan-01 20:15N 50°24' W 000°36'913.2
2017-Jan-01 19:32N 50°27' W 000°22'1313.7
2017-Jan-01 18:33N 50°31' W 000°02'1414.0
2017-Jan-01 17:33N 50°35' E 000°20'3012.9
2017-Jan-01 15:13N 50°50' E 001°01'711.1
2017-Jan-01 14:33N 50°55' E 001°10'1010.0
2017-Jan-01 13:33N 51°01' E 001°21'10 9.7
2017-Jan-01 12:33N 51°08' E 001°33'1111.0
2017-Jan-01 11:33N 51°15' E 001°46'1413.8
2017-Jan-01 10:33N 51°28' E 001°56'1414.3
2017-Jan-01 09:33N 51°38' E 002°12'1413.9
2017-Jan-01 08:34N 51°48' E 002°27'45311.3
2016-Dec-30 16:33N 57°49' E 010°23'1010.5
2016-Dec-30 15:33N 57°49' E 010°43'1212.0
2016-Dec-30 14:34N 57°41' E 010°60'1312.9
2016-Dec-30 13:33N 57°32' E 011°18'1312.7
2016-Dec-30 12:34N 57°21' E 011°31'1313.3
2016-Dec-30 11:33N 57°09' E 011°39'1513.2
2016-Dec-30 10:26N 56°55' E 011°48'1411.9
2016-Dec-30 09:16N 56°41' E 011°49'2413.4
2016-Dec-30 07:29N 56°20' E 011°27'1813.2
2016-Dec-30 06:07N 56°05' E 011°08'713.1
2016-Dec-30 05:33N 55°59' E 011°02'1513.0
2016-Dec-30 04:26N 55°46' E 010°48'1112.8
2016-Dec-30 03:32N 55°35' E 010°50'1312.9
2016-Dec-30 02:33N 55°24' E 011°00'1212.3
2016-Dec-30 01:34N 55°12' E 011°06'1111.4
2016-Dec-30 00:33N 55°01' E 010°59'1212.4
2016-Dec-29 23:34N 54°50' E 010°50'1111.1
2016-Dec-29 22:34N 54°39' E 010°51'1212.4
2016-Dec-29 21:34N 54°36' E 011°12'1313.0
2016-Dec-29 20:33N 54°30' E 011°32'1312.9
2016-Dec-29 19:34N 54°26' E 011°53'1111.2
2016-Dec-29 18:34N 54°29' E 012°12'1211.7
2016-Dec-29 17:34N 54°39' E 012°23'1212.2
2016-Dec-29 16:33N 54°46' E 012°40'2612.5
2016-Dec-29 14:31N 54°55' E 013°21'1212.3
2016-Dec-29 13:34N 54°59' E 013°40'1212.4
2016-Dec-29 12:33N 55°03' E 014°01'1312.6
2016-Dec-29 11:33N 55°13' E 014°15'1312.6
2016-Dec-29 10:33N 55°22' E 014°30'1212.2
2016-Dec-29 09:33N 55°30' E 014°47'1312.4
2016-Dec-29 08:30N 55°36' E 015°07'1212.3
2016-Dec-29 07:31N 55°43' E 015°25'33012.7
2016-Dec-28 05:34N 59°34' E 022°46'1312.7
2016-Dec-28 04:33N 59°38' E 023°10'1312.6
2016-Dec-28 03:34N 59°41' E 023°34'1212.2
2016-Dec-28 02:33N 59°44' E 023°57'1412.3
2016-Dec-28 01:27N 59°48' E 024°23'1112.2
2016-Dec-28 00:32N 59°50' E 024°45'1212.2
2016-Dec-27 23:34N 59°52' E 025°08'1212.1
2016-Dec-27 22:34N 59°54' E 025°32'1712.5
2016-Dec-27 21:12N 59°57' E 026°05'813.0
2016-Dec-27 20:33N 59°60' E 026°21'1312.6
2016-Dec-27 19:33N 60°01' E 026°46'1412.3
2016-Dec-27 18:27N 60°03' E 027°13'1213.2
2016-Dec-27 17:33N 60°09' E 027°34'1212.2
2016-Dec-27 16:33N 60°11' E 027°58'1312.6
2016-Dec-27 15:33N 60°06' E 028°21'1312.6
2016-Dec-27 14:33N 60°03' E 028°46'2512.0
2016-Dec-27 12:29N 60°01' E 029°35'910.0
2016-Dec-27 11:33N 59°57' E 029°52'9 9.1
2016-Dec-27 10:33N 59°53' E 030°09'1 1.3
2016-Dec-27 09:31N 59°53' E 030°11'0 0.0
2016-Dec-27 08:31N 59°53' E 030°11'0 0.0
2016-Dec-27 07:31N 59°53' E 030°11'0 0.0
2016-Dec-27 06:28N 59°53' E 030°11'0 0.0
2016-Dec-27 05:31N 59°53' E 030°11'0 0.0
2016-Dec-27 04:31N 59°53' E 030°11'0 0.0
2016-Dec-27 03:31N 59°53' E 030°11'0 0.0
2016-Dec-27 02:28N 59°53' E 030°11'0 0.0
2016-Dec-27 01:31N 59°53' E 030°11'0 0.0
2016-Dec-27 00:31N 59°53' E 030°11'0 0.0
2016-Dec-26 23:31N 59°53' E 030°11'  

Dump ship's entire track history